Time;durP1;ratioP1;P1;durP2;ratioP2;P2;SDS_P1;SDS_P2;PMS_P1;PMS_P2;Temp;Humidity;BMP_temperature;BMP_pressure;BME280_temperature;BME280_humidity;BME280_pressure;Samples;Min_cycle;Max_cycle;Signal;HPM_P1;HPM_P2
2023/06/17 00:01:08;;;;;;;3.47;3.17;;;;;;;20.27;51.58;96655.56;10352760;28;20030;-29
2023/06/17 00:06:09;;;;;;;3.08;2.78;;;;;;;20.23;51.44;96659.00;10344518;28;20065;-30
2023/06/17 00:11:09;;;;;;;3.00;2.70;;;;;;;20.22;51.67;96659.00;10372551;28;20131;-30
2023/06/17 00:16:12;;;;;;;4.10;2.50;;;;;;;20.23;51.78;96655.59;10350796;28;20247;-30
2023/06/17 00:21:13;;;;;;;3.92;2.67;;;;;;;20.20;51.61;96653.94;10342171;28;20064;-30
2023/06/17 00:26:13;;;;;;;4.10;3.03;;;;;;;20.20;51.65;96655.63;10365702;28;20042;-30
2023/06/17 00:31:14;;;;;;;3.00;2.53;;;;;;;20.30;51.56;96647.06;10359350;28;20046;-30
2023/06/17 00:36:15;;;;;;;3.17;2.88;;;;;;;20.48;51.37;96638.44;10339754;28;20034;-29
2023/06/17 00:41:16;;;;;;;3.40;3.10;;;;;;;20.48;51.41;96635.88;10341416;28;20038;-30
2023/06/17 00:46:23;;;;;;;3.10;2.80;;;;;;;20.35;51.16;96635.19;10365292;28;20183;-30
2023/06/17 00:51:24;;;;;;;3.88;3.47;;;;;;;20.32;51.16;96630.97;10342029;28;20038;-30
2023/06/17 00:56:26;;;;;;;4.20;3.40;;;;;;;20.30;51.07;96631.81;10338796;28;20041;-30
2023/06/17 01:01:29;;;;;;;3.60;3.30;;;;;;;20.32;51.06;96630.09;10360062;28;20052;-30
2023/06/17 01:06:55;;;;;;;3.20;2.88;;;;;;;20.31;51.06;96630.97;10346818;28;20490;-31
2023/06/17 01:11:57;;;;;;;3.42;3.08;;;;;;;20.32;50.98;96632.66;10363106;28;20030;-30
2023/06/17 01:16:58;;;;;;;3.20;2.90;;;;;;;20.33;50.79;96631.81;10333680;28;20034;-29
2023/06/17 01:21:58;;;;;;;3.40;3.10;;;;;;;20.32;50.95;96628.41;10347855;28;20041;-30
2023/06/17 01:27:02;;;;;;;4.50;3.00;;;;;;;20.48;51.62;96628.25;10367028;28;20060;-30
2023/06/17 01:32:05;;;;;;;3.20;2.90;;;;;;;20.59;51.11;96630.69;10339269;28;20553;-31
2023/06/17 01:37:09;;;;;;;5.78;3.10;;;;;;;20.49;50.55;96634.19;10334524;28;20035;-30
2023/06/17 01:42:16;;;;;;;3.28;2.97;;;;;;;20.43;50.57;96622.38;10351519;28;20038;-30
2023/06/17 01:47:16;;;;;;;2.90;2.60;;;;;;;20.39;50.85;96624.97;10330947;28;20037;-30
2023/06/17 01:52:18;;;;;;;3.45;3.15;;;;;;;20.38;50.95;96624.97;10340204;28;20049;-30
2023/06/17 01:57:19;;;;;;;3.80;3.30;;;;;;;20.37;50.83;96625.84;10347766;28;20049;-30
2023/06/17 02:02:20;;;;;;;4.28;3.67;;;;;;;20.34;50.85;96628.41;10368951;28;20119;-30
2023/06/17 02:07:25;;;;;;;3.67;3.38;;;;;;;20.34;50.75;96625.88;10339863;28;20104;-30
2023/06/17 02:12:25;;;;;;;3.70;3.17;;;;;;;20.37;51.04;96625.84;10363234;28;20034;-30
2023/06/17 02:17:27;;;;;;;3.30;3.00;;;;;;;20.42;51.26;96621.56;10346383;28;20030;-31
2023/06/17 02:22:28;;;;;;;3.30;3.00;;;;;;;20.56;51.43;96616.31;10347317;28;20088;-30
2023/06/17 02:27:28;;;;;;;3.57;3.20;;;;;;;20.55;50.71;96612.06;10361111;28;20037;-30
2023/06/17 02:32:30;;;;;;;3.50;3.20;;;;;;;20.44;50.40;96608.81;10344955;28;20097;-30
2023/06/17 02:37:31;;;;;;;3.38;3.08;;;;;;;20.39;50.65;96608.00;10334965;28;20034;-30
2023/06/17 02:42:31;;;;;;;3.78;3.45;;;;;;;20.37;50.81;96602.94;10357486;28;20029;-30
2023/06/17 02:47:34;;;;;;;3.35;3.05;;;;;;;20.33;50.72;96607.22;10362059;28;20030;-30
2023/06/17 02:52:37;;;;;;;3.85;3.40;;;;;;;20.31;50.73;96603.00;10383557;28;20386;-31
2023/06/17 02:57:38;;;;;;;4.05;3.65;;;;;;;20.31;51.06;96600.44;10360835;28;20030;-30
2023/06/17 03:02:38;;;;;;;4.25;3.85;;;;;;;20.29;50.81;96599.63;10337909;28;20502;-31
2023/06/17 03:07:40;;;;;;;3.93;3.33;;;;;;;20.29;50.75;96600.50;10324149;28;20068;-31
2023/06/17 03:12:42;;;;;;;3.60;3.30;;;;;;;20.45;51.52;96595.22;10357990;28;20032;-30
2023/06/17 03:17:43;;;;;;;3.40;3.05;;;;;;;20.59;50.66;96600.19;10338529;28;20065;-30
2023/06/17 03:22:44;;;;;;;3.97;3.58;;;;;;;20.47;50.39;96601.13;10332566;28;20026;-30
2023/06/17 03:27:46;;;;;;;4.95;3.90;;;;;;;20.38;50.79;96596.13;10336048;28;20132;-31
2023/06/17 03:32:47;;;;;;;3.42;2.90;;;;;;;20.35;50.43;96600.41;10351736;28;20145;-34
2023/06/17 03:37:49;;;;;;;3.80;3.38;;;;;;;20.32;50.52;96602.13;10329534;28;20057;-30
2023/06/17 03:42:49;;;;;;;3.75;3.45;;;;;;;20.30;50.44;96597.09;10331781;28;20033;-31
2023/06/17 03:47:49;;;;;;;4.15;3.70;;;;;;;20.29;50.51;96607.25;10366794;28;20035;-30
2023/06/17 03:52:50;;;;;;;5.22;3.85;;;;;;;20.28;50.54;96603.03;10365417;28;20032;-30
2023/06/17 03:57:52;;;;;;;4.22;3.05;;;;;;;20.28;50.40;96597.94;10346445;28;20045;-30
2023/06/17 04:02:53;;;;;;;4.22;3.63;;;;;;;20.30;50.59;96608.94;10362925;28;20026;-30
2023/06/17 04:08:02;;;;;;;4.22;3.78;;;;;;;20.51;50.80;96602.81;10329092;28;20113;-30
2023/06/17 04:13:03;;;;;;;6.07;3.40;;;;;;;20.55;50.38;96604.44;10328815;28;20043;-30
2023/06/17 04:18:03;;;;;;;4.82;3.75;;;;;;;20.43;50.07;96609.66;10334533;28;20504;-30
2023/06/17 04:23:04;;;;;;;4.03;3.58;;;;;;;20.34;50.37;96600.44;10358480;28;20689;-30
2023/06/17 04:28:07;;;;;;;4.22;3.53;;;;;;;20.32;50.43;96604.69;10356412;28;20416;-30
2023/06/17 04:33:11;;;;;;;4.22;3.65;;;;;;;20.29;50.39;96609.81;10329674;28;20035;-29
2023/06/17 04:38:12;;;;;;;3.90;3.60;;;;;;;20.29;50.66;96604.72;10347241;28;20034;-30
2023/06/17 04:43:14;;;;;;;4.32;3.50;;;;;;;20.27;50.52;96596.25;10352181;28;20057;-30
2023/06/17 04:48:15;;;;;;;4.15;3.72;;;;;;;20.27;50.57;96603.91;10345002;28;20582;-30
2023/06/17 04:53:16;;;;;;;3.47;3.10;;;;;;;20.24;50.70;96602.22;10342157;28;20402;-30
2023/06/17 04:58:17;;;;;;;4.10;3.70;;;;;;;20.37;50.60;96602.94;10342449;28;20046;-31
2023/06/17 05:03:20;;;;;;;4.40;3.75;;;;;;;20.54;50.50;96607.84;10369344;28;20034;-31
2023/06/17 05:08:22;;;;;;;4.80;3.97;;;;;;;20.46;50.27;96609.63;10364567;28;20088;-30
2023/06/17 05:13:23;;;;;;;5.25;3.53;;;;;;;20.37;50.37;96613.13;10348950;28;20039;-30
2023/06/17 05:18:24;;;;;;;4.35;3.55;;;;;;;20.32;50.36;96612.31;10347853;28;20145;-30
2023/06/17 05:23:25;;;;;;;4.07;3.67;;;;;;;20.28;51.16;96605.56;10330773;28;20041;-30
2023/06/17 05:28:26;;;;;;;3.97;3.58;;;;;;;20.29;50.42;96614.88;10359446;28;20496;-30
2023/06/17 05:33:29;;;;;;;3.88;3.53;;;;;;;20.27;50.48;96614.88;10339420;28;20581;-30
2023/06/17 05:38:30;;;;;;;4.15;3.75;;;;;;;20.29;50.46;96618.28;10333872;28;20192;-30
2023/06/17 05:43:30;;;;;;;4.32;3.47;;;;;;;20.26;50.47;96614.91;10379420;28;20033;-30
2023/06/17 05:48:32;;;;;;;3.58;3.28;;;;;;;20.28;50.59;96624.19;10334466;28;20042;-30
2023/06/17 05:53:33;;;;;;;4.18;3.78;;;;;;;20.50;50.67;96621.47;10380313;28;20057;-30
2023/06/17 05:58:33;;;;;;;4.53;4.13;;;;;;;20.57;50.55;96628.16;10333351;28;20038;-30
2023/06/17 06:03:37;;;;;;;4.50;4.03;;;;;;;20.43;50.35;96630.00;10330850;28;20058;-30
2023/06/17 06:08:37;;;;;;;4.40;3.72;;;;;;;20.36;50.29;96629.22;10335874;28;20478;-30
2023/06/17 06:13:38;;;;;;;3.80;3.50;;;;;;;20.30;50.37;96629.28;10353760;28;20037;-30
2023/06/17 06:18:38;;;;;;;4.00;3.50;;;;;;;20.29;50.53;96630.13;10362516;28;20025;-30
2023/06/17 06:23:40;;;;;;;3.90;3.60;;;;;;;20.28;50.31;96633.53;10343523;28;20505;-30
2023/06/17 06:28:41;;;;;;;4.30;3.45;;;;;;;20.28;50.23;96646.25;10345204;28;20037;-30
2023/06/17 06:33:42;;;;;;;4.50;3.30;;;;;;;20.27;50.56;96642.03;10336784;28;20037;-31
2023/06/17 06:38:42;;;;;;;3.38;3.08;;;;;;;20.26;50.51;96645.44;10361045;28;20285;-30
2023/06/17 06:43:43;;;;;;;4.00;3.70;;;;;;;20.43;50.92;96645.28;10355354;28;20034;-30
2023/06/17 06:48:49;;;;;;;3.67;3.30;;;;;;;20.60;51.13;96648.50;10330031;28;20429;-30
2023/06/17 06:53:49;;;;;;;4.10;3.28;;;;;;;20.58;50.64;96647.69;10350523;28;20042;-31
2023/06/17 06:58:50;;;;;;;3.92;3.53;;;;;;;20.45;50.66;96643.53;10338811;28;20121;-30
2023/06/17 07:03:51;;;;;;;3.50;3.15;;;;;;;20.41;50.68;96646.13;10341002;28;20030;-30
2023/06/17 07:08:53;;;;;;;4.30;3.65;;;;;;;20.37;50.75;96646.16;10360297;28;20081;-31
2023/06/17 07:13:54;;;;;;;4.57;3.72;;;;;;;20.36;50.73;96647.03;10348973;28;20045;-30
2023/06/17 07:18:54;;;;;;;3.72;3.25;;;;;;;20.36;50.99;96636.88;10354219;28;20049;-30
2023/06/17 07:23:55;;;;;;;3.67;3.28;;;;;;;20.33;50.97;96639.44;10337929;28;20032;-31
2023/06/17 07:28:56;;;;;;;3.97;3.47;;;;;;;20.30;51.05;96640.31;10339159;28;20038;-30
2023/06/17 07:33:56;;;;;;;3.10;2.75;;;;;;;20.31;50.83;96636.03;10324165;28;20616;-30
2023/06/17 07:38:58;;;;;;;3.30;3.00;;;;;;;20.53;51.33;96646.88;10328642;28;20042;-30
2023/06/17 07:43:58;;;;;;;3.28;2.97;;;;;;;20.66;51.03;96640.81;10341844;28;20493;-30
2023/06/17 07:48:59;;;;;;;3.33;3.03;;;;;;;20.58;50.92;96639.19;10373139;28;20037;-30
2023/06/17 07:53:59;;;;;;;3.40;3.10;;;;;;;20.44;50.86;96630.84;10358714;28;20038;-31
2023/06/17 07:58:59;;;;;;;3.63;3.20;;;;;;;20.42;50.95;96636.81;10372236;28;20038;-30
2023/06/17 08:04:00;;;;;;;3.80;3.17;;;;;;;20.39;51.16;96632.59;10333193;28;20029;-30
2023/06/17 08:09:00;;;;;;;3.13;2.83;;;;;;;20.35;51.17;96623.28;10365408;28;20472;-30
2023/06/17 08:14:01;;;;;;;3.80;3.40;;;;;;;20.31;51.12;96620.78;10343639;28;20108;-31
2023/06/17 08:19:01;;;;;;;3.57;3.13;;;;;;;20.34;51.24;96613.16;10369720;28;20041;-30
2023/06/17 08:24:25;;;;;;;3.60;3.30;;;;;;;20.34;51.19;96615.69;10375076;28;20033;-29
2023/06/17 08:29:28;;;;;;;3.08;2.75;;;;;;;20.45;51.96;96613.03;10366015;28;20057;-30
2023/06/17 08:34:30;;;;;;;3.05;2.75;;;;;;;20.63;51.62;96602.66;10369915;28;20383;-29
2023/06/17 08:39:32;;;;;;;3.38;2.95;;;;;;;20.66;51.56;96607.75;10365367;28;20044;-30
2023/06/17 08:44:33;;;;;;;2.95;2.70;;;;;;;20.54;51.40;96602.75;10370584;28;20033;-30
2023/06/17 08:49:34;;;;;;;3.05;2.75;;;;;;;20.47;51.32;96603.69;10357838;28;20034;-30
2023/06/17 08:54:40;;;;;;;3.33;3.03;;;;;;;20.45;51.62;96602.84;10371542;28;20030;-30
2023/06/17 08:59:41;;;;;;;3.38;2.92;;;;;;;20.45;51.79;96600.31;10363224;28;20031;-30
2023/06/17 09:04:42;;;;;;;2.72;2.53;;;;;;;20.44;51.83;96596.09;10371902;28;20043;-31
2023/06/17 09:09:47;;;;;;;2.85;2.65;;;;;;;20.42;51.67;96585.97;10353716;28;20038;-30
2023/06/17 09:14:47;;;;;;;2.75;2.33;;;;;;;20.44;51.95;96593.53;10371717;28;20037;-30
2023/06/17 09:19:48;;;;;;;3.13;2.83;;;;;;;20.43;51.99;96594.41;10355983;28;20036;-30
2023/06/17 09:24:48;;;;;;;3.77;2.97;;;;;;;20.59;52.38;96580.69;10355766;28;20029;-31
2023/06/17 09:30:06;;;;;;;3.33;2.80;;;;;;;20.73;52.29;96583.06;10341171;28;20030;-30
2023/06/17 09:35:11;;;;;;;2.60;2.40;;;;;;;20.61;51.74;96580.66;10356026;28;20515;-30
2023/06/17 09:40:12;;;;;;;2.35;2.15;;;;;;;20.52;51.57;96594.31;10361302;28;20053;-30
2023/06/17 09:45:23;;;;;;;2.50;2.22;;;;;;;20.57;52.87;96582.38;10365782;28;20032;-29
2023/06/17 09:50:24;;;;;;;2.63;2.42;;;;;;;20.54;52.46;96582.41;10375767;28;20038;-31
2023/06/17 09:55:26;;;;;;;2.58;2.38;;;;;;;20.60;53.44;96577.28;10367201;28;20402;-30
2023/06/17 10:00:27;;;;;;;2.20;2.00;;;;;;;20.52;52.25;96573.97;10359701;28;20066;-31
2023/06/17 10:05:27;;;;;;;2.33;2.13;;;;;;;20.47;52.24;96564.72;10339958;28;20030;-31
2023/06/17 10:10:28;;;;;;;2.40;2.17;;;;;;;20.44;52.18;96563.03;10365164;28;20038;-31
2023/06/17 10:15:29;;;;;;;2.50;2.30;;;;;;;20.57;53.10;96554.41;10348277;28;20322;-32
2023/06/17 10:20:32;;;;;;;2.30;2.10;;;;;;;20.74;52.76;96560.16;10366323;28;20034;-30
2023/06/17 10:25:33;;;;;;;2.15;1.95;;;;;;;20.71;52.37;96560.19;10368400;28;20121;-31
2023/06/17 10:30:34;;;;;;;1.90;1.75;;;;;;;20.60;52.41;96572.19;10349228;28;20037;-31
2023/06/17 10:35:46;;;;;;;2.38;2.17;;;;;;;20.48;52.07;96562.13;10368950;28;20029;-31
2023/06/17 10:40:47;;;;;;;2.13;1.92;;;;;;;20.46;52.21;96561.31;10360961;28;20041;-31
2023/06/17 10:45:50;;;;;;;2.20;2.00;;;;;;;20.51;52.32;96557.03;10370990;28;20449;-31
2023/06/17 10:50:53;;;;;;;2.13;1.92;;;;;;;20.55;52.76;96558.66;10337517;28;20499;-31
2023/06/17 10:55:55;;;;;;;2.30;2.10;;;;;;;20.55;52.92;96553.56;10355224;28;20033;-31
2023/06/17 11:01:02;;;;;;;2.38;2.17;;;;;;;20.47;52.61;96550.28;10358680;28;20053;-30
2023/06/17 11:06:04;;;;;;;2.20;2.00;;;;;;;20.48;52.95;96549.41;10353882;28;20124;-31
2023/06/17 11:11:14;;;;;;;1.98;1.83;;;;;;;20.69;52.72;96549.19;10361059;28;20453;-32
2023/06/17 11:16:15;;;;;;;2.20;2.00;;;;;;;20.77;52.34;96555.03;10348087;28;20513;-31
2023/06/17 11:21:15;;;;;;;2.30;2.10;;;;;;;20.72;52.31;96536.41;10365080;28;20028;-31
2023/06/17 11:26:17;;;;;;;2.00;1.83;;;;;;;20.63;52.33;96533.97;10355285;28;20044;-31
2023/06/17 11:31:20;;;;;;;2.58;2.38;;;;;;;20.52;52.39;96532.41;10356837;28;20088;-31
2023/06/17 11:36:20;;;;;;;2.03;1.83;;;;;;;20.43;52.39;96530.84;10345290;28;20034;-31
2023/06/17 11:41:22;;;;;;;2.25;1.90;;;;;;;20.42;51.99;96534.25;10349449;28;20026;-32
2023/06/17 11:46:24;;;;;;;2.33;1.83;;;;;;;20.49;52.92;96527.38;10343763;28;20030;-31
2023/06/17 11:51:25;;;;;;;1.77;1.67;;;;;;;20.51;52.72;96525.66;10332175;28;20084;-31
2023/06/17 11:56:26;;;;;;;2.13;1.90;;;;;;;20.46;52.85;96537.59;10330402;28;20551;-31
2023/06/17 12:01:26;;;;;;;2.15;1.95;;;;;;;20.59;53.03;96534.91;10357480;28;20577;-31
2023/06/17 12:06:27;;;;;;;2.10;1.90;;;;;;;20.76;52.83;96533.00;10375591;28;20035;-30
2023/06/17 12:11:35;;;;;;;1.83;1.70;;;;;;;20.76;52.33;96517.72;10355730;28;20022;-31
2023/06/17 12:16:37;;;;;;;2.25;2.05;;;;;;;20.70;52.79;96527.97;10353084;28;20030;-31
2023/06/17 12:21:37;;;;;;;2.08;1.88;;;;;;;20.61;52.41;96517.91;10376365;28;20095;-32
2023/06/17 12:26:38;;;;;;;1.70;1.60;;;;;;;20.55;52.59;96507.78;10351037;28;20053;-31
2023/06/17 12:31:38;;;;;;;2.00;1.70;;;;;;;20.56;52.88;96504.38;10351385;28;20089;-31
2023/06/17 12:36:40;;;;;;;2.13;1.93;;;;;;;20.49;52.88;96502.81;10351466;28;20285;-31
2023/06/17 12:41:40;;;;;;;2.05;1.85;;;;;;;20.49;52.99;96496.84;10327003;28;20031;-31
2023/06/17 12:46:41;;;;;;;1.80;1.63;;;;;;;20.61;53.98;96491.63;10341349;28;20022;-32
2023/06/17 12:51:41;;;;;;;2.10;1.90;;;;;;;20.52;53.23;96484.94;10356220;28;20064;-31
2023/06/17 12:56:42;;;;;;;2.13;1.93;;;;;;;20.71;53.26;96473.69;10367942;28;20084;-31
2023/06/17 13:01:43;;;;;;;2.10;1.85;;;;;;;20.80;53.04;96471.03;10355883;28;20414;-30
2023/06/17 13:06:44;;;;;;;2.10;2.00;;;;;;;20.72;53.10;96469.44;10363738;28;20041;-31
2023/06/17 13:11:44;;;;;;;1.90;1.77;;;;;;;20.55;52.91;96476.44;10350390;28;20034;-31
2023/06/17 13:16:46;;;;;;;1.80;1.70;;;;;;;20.54;52.76;96475.59;10369349;28;20521;-30
2023/06/17 13:21:46;;;;;;;2.33;2.13;;;;;;;20.50;52.47;96461.25;10357698;28;20037;-31
2023/06/17 13:26:47;;;;;;;2.10;1.63;;;;;;;20.55;52.97;96466.28;10349723;28;20026;-30
2023/06/17 13:31:48;;;;;;;1.90;1.70;;;;;;;20.55;53.40;96463.72;10381230;28;20300;-32
2023/06/17 13:36:48;;;;;;;2.22;2.03;;;;;;;20.57;53.84;96450.09;10342013;28;20502;-31
2023/06/17 13:41:48;;;;;;;1.90;1.70;;;;;;;20.59;53.24;96450.09;10346954;28;20034;-30
2023/06/17 13:46:49;;;;;;;1.90;1.70;;;;;;;20.69;53.89;96447.44;10338524;28;20030;-30
2023/06/17 13:51:50;;;;;;;1.90;1.80;;;;;;;20.83;53.44;96454.88;10348215;28;20030;-31
2023/06/17 13:56:51;;;;;;;2.00;1.80;;;;;;;20.80;52.81;96443.03;10355321;28;20041;-31
2023/06/17 14:01:51;;;;;;;1.77;1.67;;;;;;;20.71;53.06;96448.25;10348947;28;20026;-32
2023/06/17 14:06:53;;;;;;;2.10;1.90;;;;;;;20.57;52.86;96445.03;10362802;28;20079;-32
2023/06/17 14:11:54;;;;;;;1.70;1.60;;;;;;;20.64;53.80;96436.47;10347616;28;20041;-31
2023/06/17 14:16:56;;;;;;;2.22;2.03;;;;;;;20.69;54.67;96437.25;10331010;28;20080;-31
2023/06/17 14:22:04;;;;;;;2.10;1.92;;;;;;;20.56;53.11;96433.16;10362274;28;20046;-32
2023/06/17 14:27:35;;;;;;;1.92;1.80;;;;;;;20.60;53.44;96429.75;10349255;28;20062;-32
2023/06/17 14:32:38;;;;;;;2.30;2.10;;;;;;;20.57;53.50;96424.66;10349203;28;20460;-31
2023/06/17 14:37:41;;;;;;;2.33;1.73;;;;;;;20.60;53.67;96429.75;10377239;28;20030;-31
2023/06/17 14:42:41;;;;;;;1.73;1.63;;;;;;;20.78;53.57;96426.09;10340860;28;20022;-31
2023/06/17 14:47:43;;;;;;;1.80;1.70;;;;;;;20.84;53.30;96421.78;10337751;28;20042;-31
2023/06/17 14:52:47;;;;;;;1.65;1.55;;;;;;;20.72;53.33;96421.94;10342669;28;20038;-30
2023/06/17 14:57:47;;;;;;;1.80;1.70;;;;;;;20.71;54.10;96419.44;10346987;28;20070;-31
2023/06/17 15:02:55;;;;;;;2.00;1.90;;;;;;;20.69;54.69;96411.81;10329390;28;20509;-31
2023/06/17 15:07:56;;;;;;;1.70;1.60;;;;;;;20.74;54.78;96401.56;10361614;28;20041;-31
2023/06/17 15:12:56;;;;;;;2.03;1.83;;;;;;;20.74;55.09;96401.56;10353351;28;20501;-31
2023/06/17 15:17:58;;;;;;;1.60;1.50;;;;;;;20.71;54.81;96402.44;10352745;28;20060;-31
2023/06/17 15:22:58;;;;;;;1.85;1.73;;;;;;;20.72;55.17;96399.03;10368054;28;20042;-31
2023/06/17 15:27:59;;;;;;;2.00;1.80;;;;;;;20.74;55.42;96397.34;10360734;28;20514;-31
2023/06/17 15:32:59;;;;;;;1.63;1.53;;;;;;;20.82;54.42;96395.50;10352873;28;20038;-31
2023/06/17 15:38:00;;;;;;;1.60;1.50;;;;;;;20.93;54.39;96397.94;10364755;28;20296;-31
2023/06/17 15:43:00;;;;;;;1.60;1.40;;;;;;;20.89;53.81;96389.50;10344693;28;20034;-32
2023/06/17 15:48:00;;;;;;;2.70;1.60;;;;;;;20.79;54.20;96389.66;10351844;28;20038;-32
2023/06/17 15:53:01;;;;;;;2.10;1.90;;;;;;;20.77;54.77;96394.75;10343729;28;20378;-31
2023/06/17 15:58:01;;;;;;;1.57;1.43;;;;;;;20.78;55.14;96391.34;10343528;28;20327;-31
2023/06/17 16:03:01;;;;;;;1.77;1.63;;;;;;;20.75;54.77;96388.84;10327200;28;20092;-31
2023/06/17 16:08:02;;;;;;;2.70;1.87;;;;;;;20.68;54.50;96387.25;10334569;28;20035;-31
2023/06/17 16:13:02;;;;;;;1.83;1.70;;;;;;;20.68;54.21;96379.59;10360631;28;20035;-31
2023/06/17 16:18:03;;;;;;;1.93;1.83;;;;;;;20.65;54.17;96383.91;10334474;28;20045;-31
2023/06/17 16:23:03;;;;;;;2.15;1.95;;;;;;;20.71;55.74;96384.63;10376038;28;20042;-32
2023/06/17 16:28:03;;;;;;;1.90;1.52;;;;;;;20.86;54.42;96384.47;10358608;28;20045;-31
2023/06/17 16:33:04;;;;;;;1.50;1.40;;;;;;;20.92;54.05;96386.06;10352186;28;20041;-31
2023/06/17 16:38:05;;;;;;;2.08;1.90;;;;;;;20.84;54.51;96377.66;10359824;28;20509;-31
2023/06/17 16:43:05;;;;;;;2.07;1.97;;;;;;;20.81;55.45;96378.56;10345289;28;20029;-32
2023/06/17 16:48:05;;;;;;;1.80;1.70;;;;;;;20.79;55.55;96374.38;10355879;28;20034;-30
2023/06/17 16:53:06;;;;;;;1.67;1.57;;;;;;;20.78;55.29;96377.75;10359066;28;20489;-32
2023/06/17 16:58:06;;;;;;;1.90;1.70;;;;;;;20.76;55.58;96376.94;10364723;28;20041;-31
2023/06/17 17:03:06;;;;;;;1.87;1.70;;;;;;;20.76;55.43;96371.84;10366645;28;20045;-32
2023/06/17 17:08:07;;;;;;;1.87;1.73;;;;;;;20.75;55.90;96372.72;10376155;28;20037;-31
2023/06/17 17:13:08;;;;;;;1.67;1.57;;;;;;;20.73;55.21;96370.19;10358013;28;20060;-31
2023/06/17 17:18:08;;;;;;;1.63;1.52;;;;;;;20.86;54.76;96381.91;10357940;28;20033;-31
2023/06/17 17:23:08;;;;;;;2.20;1.98;;;;;;;20.95;54.66;96381.78;10373998;28;20109;-32
2023/06/17 17:28:09;;;;;;;1.50;1.40;;;;;;;20.88;54.77;96380.19;10349293;28;20042;-31
2023/06/17 17:33:10;;;;;;;1.67;1.53;;;;;;;20.81;54.81;96381.09;10358105;28;20391;-30
2023/06/17 17:38:10;;;;;;;1.50;1.40;;;;;;;20.77;54.83;96387.09;10373262;28;20289;-31
2023/06/17 17:43:11;;;;;;;1.60;1.50;;;;;;;20.75;54.99;96393.94;10349548;28;20398;-32
2023/06/17 17:48:11;;;;;;;1.73;1.50;;;;;;;20.76;55.17;96389.66;10379754;28;20112;-32
2023/06/17 17:53:12;;;;;;;1.75;1.65;;;;;;;20.73;54.98;96388.00;10350078;28;20042;-31
2023/06/17 17:58:12;;;;;;;1.98;1.83;;;;;;;20.72;54.74;96393.13;10363590;28;20040;-31
2023/06/17 18:03:12;;;;;;;1.43;1.33;;;;;;;20.70;54.45;96397.38;10362029;28;20497;-32
2023/06/17 18:08:13;;;;;;;1.53;1.43;;;;;;;20.79;55.13;96394.72;10389974;28;20291;-31
2023/06/17 18:13:13;;;;;;;1.73;1.60;;;;;;;20.93;54.53;96397.94;10379758;28;20037;-30
2023/06/17 18:18:13;;;;;;;1.50;1.40;;;;;;;20.95;54.25;96402.13;10354011;28;20426;-31
2023/06/17 18:23:14;;;;;;;1.87;1.57;;;;;;;20.83;54.50;96402.28;10362543;28;20410;-31
2023/06/17 18:28:14;;;;;;;1.35;1.25;;;;;;;20.74;54.28;96401.56;10387327;28;20090;-32
2023/06/17 18:33:15;;;;;;;1.53;1.43;;;;;;;20.69;54.27;96399.09;10347637;28;20418;-31
2023/06/17 18:38:15;;;;;;;1.60;1.50;;;;;;;20.63;54.38;96403.44;10383742;28;20038;-31
2023/06/17 18:43:20;;;;;;;1.70;1.60;;;;;;;20.61;54.46;96411.06;10378857;28;20052;-31
2023/06/17 18:48:22;;;;;;;1.27;1.17;;;;;;;20.59;54.74;96414.50;10357785;28;20037;-31
2023/06/17 18:53:22;;;;;;;1.40;1.30;;;;;;;20.57;54.23;96423.84;10352338;28;20034;-31
2023/06/17 18:58:23;;;;;;;1.40;1.30;;;;;;;20.57;54.16;96427.22;10377684;28;20037;-31
2023/06/17 19:03:23;;;;;;;1.70;1.60;;;;;;;20.74;54.40;96432.97;10374792;28;20036;-30
2023/06/17 19:08:23;;;;;;;1.40;1.30;;;;;;;20.91;54.37;96435.28;10383701;28;20075;-31
2023/06/17 19:13:24;;;;;;;1.40;1.30;;;;;;;20.83;54.39;96437.06;10381096;28;20025;-31
2023/06/17 19:18:24;;;;;;;1.48;1.38;;;;;;;20.69;54.15;96441.47;10364922;28;20037;-31
2023/06/17 19:23:25;;;;;;;1.48;1.38;;;;;;;20.61;54.12;96446.69;10353720;28;20096;-31
2023/06/17 19:28:25;;;;;;;1.40;1.30;;;;;;;20.59;54.07;96450.97;10368109;28;20037;-32
2023/06/17 19:33:26;;;;;;;1.33;1.23;;;;;;;20.56;54.22;96450.97;10350252;28;20041;-31
2023/06/17 19:38:26;;;;;;;1.37;1.27;;;;;;;20.51;54.24;96450.22;10336114;28;20490;-30
2023/06/17 19:43:32;;;;;;;1.43;1.33;;;;;;;20.53;54.12;96463.75;10336230;28;20292;-31
2023/06/17 19:48:33;;;;;;;1.48;1.38;;;;;;;20.51;54.09;96468.00;10352067;28;20076;-31
2023/06/17 19:53:33;;;;;;;2.23;2.03;;;;;;;20.60;54.44;96475.53;10344051;28;20065;-31
2023/06/17 19:58:34;;;;;;;1.50;1.40;;;;;;;20.79;53.98;96476.97;10360052;28;20045;-32
2023/06/17 20:03:34;;;;;;;1.27;1.17;;;;;;;20.84;54.03;96482.84;10361880;28;20159;-30
2023/06/17 20:08:35;;;;;;;1.40;1.30;;;;;;;20.70;53.97;96472.00;10394891;28;20029;-31
2023/06/17 20:13:35;;;;;;;1.23;1.13;;;;;;;20.59;53.78;96478.06;10355900;28;20034;-32
2023/06/17 20:18:35;;;;;;;1.50;1.40;;;;;;;20.54;53.79;96482.41;10340007;28;20453;-31
2023/06/17 20:23:39;;;;;;;1.37;1.23;;;;;;;20.51;53.82;96490.91;10358929;28;20022;-31
2023/06/17 20:28:40;;;;;;;1.55;1.45;;;;;;;20.49;53.81;96486.69;10351018;28;20387;-31
2023/06/17 20:33:40;;;;;;;1.42;1.30;;;;;;;20.48;53.63;96493.47;10366666;28;20029;-31
2023/06/17 20:38:41;;;;;;;1.77;1.47;;;;;;;20.47;53.55;96499.41;10366636;28;20388;-31
2023/06/17 20:43:41;;;;;;;1.50;1.40;;;;;;;20.48;53.63;96502.81;10359155;28;20032;-31
2023/06/17 20:48:41;;;;;;;1.30;1.20;;;;;;;20.66;53.74;96500.91;10383065;28;20034;-32
2023/06/17 20:53:42;;;;;;;1.60;1.50;;;;;;;20.81;53.92;96503.22;10399627;28;20029;-31
2023/06/17 20:58:42;;;;;;;1.40;1.30;;;;;;;20.77;53.27;96499.06;10386046;28;20088;-32
2023/06/17 21:03:43;;;;;;;1.40;1.20;;;;;;;20.61;53.17;96502.66;10357831;28;20049;-32
2023/06/17 21:08:43;;;;;;;1.38;1.27;;;;;;;20.54;53.35;96506.13;10341897;28;20057;-31
2023/06/17 21:13:43;;;;;;;1.47;1.37;;;;;;;20.49;53.46;96512.97;10362657;28;20085;-31
2023/06/17 21:18:44;;;;;;;1.73;1.63;;;;;;;20.48;53.51;96505.34;10333905;28;20036;-31
2023/06/17 21:23:45;;;;;;;2.10;1.75;;;;;;;20.46;53.18;96510.44;10348233;28;20030;-31
2023/06/17 21:28:46;;;;;;;1.70;1.60;;;;;;;20.48;53.42;96505.34;10352269;28;20489;-31
2023/06/17 21:33:48;;;;;;;1.60;1.50;;;;;;;20.45;53.26;96503.69;10365528;28;20034;-31
2023/06/17 21:38:49;;;;;;;2.05;1.80;;;;;;;20.49;53.60;96512.97;10356765;28;20079;-31
2023/06/17 21:43:49;;;;;;;1.47;1.37;;;;;;;20.73;53.49;96517.75;10348941;28;20111;-31
2023/06/17 21:48:50;;;;;;;1.58;1.48;;;;;;;20.80;52.62;96508.38;10371292;28;20049;-31
2023/06/17 21:53:51;;;;;;;1.60;1.50;;;;;;;20.66;53.09;96506.00;10368294;28;20096;-31
2023/06/17 21:58:51;;;;;;;1.70;1.60;;;;;;;20.54;53.04;96507.84;10336556;28;20410;-31
2023/06/17 22:03:51;;;;;;;1.60;1.50;;;;;;;20.50;53.38;96501.94;10375642;28;20037;-31
2023/06/17 22:08:52;;;;;;;2.07;1.97;;;;;;;20.49;53.20;96502.81;10354697;28;20316;-31
2023/06/17 22:13:52;;;;;;;1.93;1.80;;;;;;;20.53;53.11;96499.34;10347393;28;20042;-32
2023/06/17 22:18:52;;;;;;;2.10;2.00;;;;;;;20.53;52.74;96501.88;10355337;28;20053;-31
2023/06/17 22:23:53;;;;;;;1.63;1.53;;;;;;;20.54;52.55;96495.94;10360144;28;20668;-31
2023/06/17 22:28:53;;;;;;;2.40;2.20;;;;;;;20.56;53.00;96493.38;10350011;28;20130;-32
2023/06/17 22:33:54;;;;;;;2.07;1.87;;;;;;;20.68;53.41;96499.16;10375022;28;20801;-31
2023/06/17 22:38:54;;;;;;;2.10;1.90;;;;;;;20.82;53.19;96507.47;10367282;28;20557;-31
2023/06/17 22:43:54;;;;;;;1.80;1.70;;;;;;;20.72;52.54;96499.97;10355191;28;20293;-31
2023/06/17 22:48:55;;;;;;;2.83;2.63;;;;;;;20.64;52.35;96506.88;10333069;28;20101;-30
2023/06/17 22:53:55;;;;;;;2.20;2.00;;;;;;;20.60;52.63;96495.03;10323988;28;20038;-31
2023/06/17 22:58:55;;;;;;;2.37;1.87;;;;;;;20.59;52.30;96498.44;10349216;28;20042;-31
2023/06/17 23:03:56;;;;;;;3.33;2.13;;;;;;;20.57;52.44;96495.91;10348869;28;20030;-31
2023/06/17 23:08:59;;;;;;;2.70;2.50;;;;;;;20.57;52.53;96492.53;10337144;28;20026;-31
2023/06/17 23:13:59;;;;;;;2.30;2.10;;;;;;;20.54;52.18;96490.84;10350595;28;20038;-31
2023/06/17 23:18:59;;;;;;;2.90;2.60;;;;;;;20.56;52.50;96493.38;10355907;28;20053;-31